sensor_id;sensor_type;location;lat;lon;timestamp;pressure;altitude;pressure_sealevel;temperature;humidity
73106;BME280;61559;50.476;15.588;2023-07-13T00:00:52;97252.38;;;18.18;75.57
73106;BME280;61559;50.476;15.588;2023-07-13T00:03:41;97259.52;;;18.19;75.70
73106;BME280;61559;50.476;15.588;2023-07-13T00:06:13;97263.70;;;18.18;75.70
73106;BME280;61559;50.476;15.588;2023-07-13T00:08:44;97267.36;;;18.19;75.96
73106;BME280;61559;50.476;15.588;2023-07-13T00:11:16;97274.36;;;18.20;76.03
73106;BME280;61559;50.476;15.588;2023-07-13T00:13:47;97279.50;;;18.19;76.07
73106;BME280;61559;50.476;15.588;2023-07-13T00:16:18;97274.42;;;18.18;76.21
73106;BME280;61559;50.476;15.588;2023-07-13T00:18:49;97276.66;;;18.19;76.16
73106;BME280;61559;50.476;15.588;2023-07-13T00:21:22;97283.08;;;18.19;76.17
73106;BME280;61559;50.476;15.588;2023-07-13T00:23:53;97288.20;;;18.18;76.13
73106;BME280;61559;50.476;15.588;2023-07-13T00:26:24;97284.99;;;18.20;76.28
73106;BME280;61559;50.476;15.588;2023-07-13T00:28:55;97277.85;;;18.22;76.33
73106;BME280;61559;50.476;15.588;2023-07-13T00:31:27;97272.57;;;18.22;76.34
73106;BME280;61559;50.476;15.588;2023-07-13T00:33:58;97272.73;;;18.25;76.14
73106;BME280;61559;50.476;15.588;2023-07-13T00:36:30;97275.64;;;18.26;76.14
73106;BME280;61559;50.476;15.588;2023-07-13T00:39:02;97273.48;;;18.26;76.11
73106;BME280;61559;50.476;15.588;2023-07-13T00:41:33;97270.36;;;18.25;76.24
73106;BME280;61559;50.476;15.588;2023-07-13T00:44:08;97265.52;;;18.25;76.24
73106;BME280;61559;50.476;15.588;2023-07-13T00:46:40;97265.58;;;18.23;76.18
73106;BME280;61559;50.476;15.588;2023-07-13T00:49:16;97265.34;;;18.22;76.27
73106;BME280;61559;50.476;15.588;2023-07-13T00:51:52;97260.19;;;18.20;76.22
73106;BME280;61559;50.476;15.588;2023-07-13T00:54:26;97250.80;;;18.17;76.33
73106;BME280;61559;50.476;15.588;2023-07-13T00:57:00;97241.34;;;18.15;76.29
73106;BME280;61559;50.476;15.588;2023-07-13T00:59:33;97238.05;;;18.14;76.32
73106;BME280;61559;50.476;15.588;2023-07-13T01:02:06;97237.84;;;18.16;76.68
73106;BME280;61559;50.476;15.588;2023-07-13T01:04:37;97242.48;;;18.18;76.74
73106;BME280;61559;50.476;15.588;2023-07-13T01:07:09;97246.95;;;18.19;76.62
73106;BME280;61559;50.476;15.588;2023-07-13T01:09:41;97249.40;;;18.18;76.90
73106;BME280;61559;50.476;15.588;2023-07-13T01:12:13;97250.18;;;18.13;76.84
73106;BME280;61559;50.476;15.588;2023-07-13T01:14:45;97258.69;;;18.06;77.37
73106;BME280;61559;50.476;15.588;2023-07-13T01:17:16;97271.23;;;18.01;78.07
73106;BME280;61559;50.476;15.588;2023-07-13T01:19:48;97277.98;;;17.98;78.53
73106;BME280;61559;50.476;15.588;2023-07-13T01:22:20;97277.73;;;17.94;79.04
73106;BME280;61559;50.476;15.588;2023-07-13T01:24:55;97278.60;;;17.91;79.38
73106;BME280;61559;50.476;15.588;2023-07-13T01:27:27;97293.27;;;17.92;79.79
73106;BME280;61559;50.476;15.588;2023-07-13T01:29:58;97299.18;;;17.96;80.00
73106;BME280;61559;50.476;15.588;2023-07-13T01:32:33;97282.98;;;17.98;80.60
73106;BME280;61559;50.476;15.588;2023-07-13T01:35:05;97257.05;;;17.98;80.91
73106;BME280;61559;50.476;15.588;2023-07-13T01:37:37;97234.35;;;17.98;81.04
73106;BME280;61559;50.476;15.588;2023-07-13T01:40:09;97222.95;;;17.96;81.39
73106;BME280;61559;50.476;15.588;2023-07-13T01:42:41;97227.96;;;17.91;81.49
73106;BME280;61559;50.476;15.588;2023-07-13T01:45:13;97225.92;;;17.86;81.56
73106;BME280;61559;50.476;15.588;2023-07-13T01:47:44;97214.77;;;17.81;81.91
73106;BME280;61559;50.476;15.588;2023-07-13T01:50:15;97211.67;;;17.74;81.96
73106;BME280;61559;50.476;15.588;2023-07-13T01:52:46;97213.08;;;17.73;82.11
73106;BME280;61559;50.476;15.588;2023-07-13T01:55:17;97205.57;;;17.74;82.12
73106;BME280;61559;50.476;15.588;2023-07-13T01:57:49;97195.68;;;17.75;82.12
73106;BME280;61559;50.476;15.588;2023-07-13T02:00:20;97189.57;;;17.74;82.31
73106;BME280;61559;50.476;15.588;2023-07-13T02:02:52;97188.22;;;17.73;82.50
73106;BME280;61559;50.476;15.588;2023-07-13T02:05:23;97193.88;;;17.74;82.28
73106;BME280;61559;50.476;15.588;2023-07-13T02:07:55;97197.10;;;17.75;82.18
73106;BME280;61559;50.476;15.588;2023-07-13T02:10:28;97191.00;;;17.77;82.18
73106;BME280;61559;50.476;15.588;2023-07-13T02:12:59;97193.61;;;17.79;82.04
73106;BME280;61559;50.476;15.588;2023-07-13T02:15:30;97187.52;;;17.78;82.15
73106;BME280;61559;50.476;15.588;2023-07-13T02:18:01;97191.02;;;17.78;81.97
73106;BME280;61559;50.476;15.588;2023-07-13T02:20:33;97188.84;;;17.76;81.97
73106;BME280;61559;50.476;15.588;2023-07-13T02:23:04;97192.40;;;17.75;81.85
73106;BME280;61559;50.476;15.588;2023-07-13T02:25:38;97199.77;;;17.74;82.13
73106;BME280;61559;50.476;15.588;2023-07-13T02:28:10;97207.92;;;17.71;81.90
73106;BME280;61559;50.476;15.588;2023-07-13T02:30:41;97205.38;;;17.68;81.76
73106;BME280;61559;50.476;15.588;2023-07-13T02:33:12;97200.94;;;17.65;81.57
73106;BME280;61559;50.476;15.588;2023-07-13T02:35:43;97199.02;;;17.61;81.66
73106;BME280;61559;50.476;15.588;2023-07-13T02:38:15;97205.33;;;17.57;81.63
73106;BME280;61559;50.476;15.588;2023-07-13T02:40:47;97208.07;;;17.57;81.84
73106;BME280;61559;50.476;15.588;2023-07-13T02:43:18;97210.13;;;17.54;81.91
73106;BME280;61559;50.476;15.588;2023-07-13T02:45:49;97212.63;;;17.51;82.00
73106;BME280;61559;50.476;15.588;2023-07-13T02:48:20;97216.98;;;17.47;82.33
73106;BME280;61559;50.476;15.588;2023-07-13T02:50:52;97219.02;;;17.44;82.00
73106;BME280;61559;50.476;15.588;2023-07-13T02:53:23;97210.02;;;17.41;81.87
73106;BME280;61559;50.476;15.588;2023-07-13T02:55:54;97208.41;;;17.38;82.07
73106;BME280;61559;50.476;15.588;2023-07-13T02:58:25;97209.27;;;17.34;81.91
73106;BME280;61559;50.476;15.588;2023-07-13T03:00:56;97217.35;;;17.29;82.26
73106;BME280;61559;50.476;15.588;2023-07-13T03:03:29;97226.10;;;17.27;82.41
73106;BME280;61559;50.476;15.588;2023-07-13T03:06:03;97229.29;;;17.26;82.44
73106;BME280;61559;50.476;15.588;2023-07-13T03:08:35;97240.36;;;17.26;82.17
73106;BME280;61559;50.476;15.588;2023-07-13T03:11:08;97245.12;;;17.25;82.38
73106;BME280;61559;50.476;15.588;2023-07-13T03:13:40;97256.42;;;17.25;82.73
73106;BME280;61559;50.476;15.588;2023-07-13T03:16:12;97259.89;;;17.24;82.86
73106;BME280;61559;50.476;15.588;2023-07-13T03:18:49;97263.24;;;17.24;83.10
73106;BME280;61559;50.476;15.588;2023-07-13T03:21:20;97263.85;;;17.25;83.30
73106;BME280;61559;50.476;15.588;2023-07-13T03:23:51;97268.17;;;17.26;83.33
73106;BME280;61559;50.476;15.588;2023-07-13T03:26:22;97283.95;;;17.26;83.53
73106;BME280;61559;50.476;15.588;2023-07-13T03:28:54;97294.00;;;17.27;83.53
73106;BME280;61559;50.476;15.588;2023-07-13T03:31:27;97293.13;;;17.28;83.86
73106;BME280;61559;50.476;15.588;2023-07-13T03:33:58;97293.98;;;17.31;83.99
73106;BME280;61559;50.476;15.588;2023-07-13T03:36:31;97288.27;;;17.34;84.09
73106;BME280;61559;50.476;15.588;2023-07-13T03:39:04;97278.10;;;17.38;84.13
73106;BME280;61559;50.476;15.588;2023-07-13T03:41:38;97272.71;;;17.42;84.12
73106;BME280;61559;50.476;15.588;2023-07-13T03:44:10;97266.83;;;17.48;84.03
73106;BME280;61559;50.476;15.588;2023-07-13T03:46:42;97264.12;;;17.52;83.77
73106;BME280;61559;50.476;15.588;2023-07-13T03:49:14;97257.55;;;17.57;83.69
73106;BME280;61559;50.476;15.588;2023-07-13T03:51:46;97260.27;;;17.60;83.81
73106;BME280;61559;50.476;15.588;2023-07-13T03:54:20;97260.56;;;17.61;83.42
73106;BME280;61559;50.476;15.588;2023-07-13T03:56:51;97266.30;;;17.63;83.43
73106;BME280;61559;50.476;15.588;2023-07-13T03:59:23;97264.59;;;17.66;83.47
73106;BME280;61559;50.476;15.588;2023-07-13T04:01:54;97263.73;;;17.70;83.29
73106;BME280;61559;50.476;15.588;2023-07-13T04:04:25;97270.31;;;17.73;83.33
73106;BME280;61559;50.476;15.588;2023-07-13T04:06:57;97278.38;;;17.77;83.18
73106;BME280;61559;50.476;15.588;2023-07-13T04:09:29;97279.46;;;17.81;83.09
73106;BME280;61559;50.476;15.588;2023-07-13T04:12:01;97282.88;;;17.88;83.21
73106;BME280;61559;50.476;15.588;2023-07-13T04:14:32;97280.18;;;17.94;83.31
73106;BME280;61559;50.476;15.588;2023-07-13T04:17:04;97274.73;;;18.00;83.08
73106;BME280;61559;50.476;15.588;2023-07-13T04:19:35;97272.55;;;18.07;82.58
73106;BME280;61559;50.476;15.588;2023-07-13T04:22:07;97272.66;;;18.12;82.59
73106;BME280;61559;50.476;15.588;2023-07-13T04:24:38;97270.96;;;18.14;82.57
73106;BME280;61559;50.476;15.588;2023-07-13T04:27:09;97267.86;;;18.16;82.85
73106;BME280;61559;50.476;15.588;2023-07-13T04:29:40;97266.38;;;18.20;82.86
73106;BME280;61559;50.476;15.588;2023-07-13T04:32:11;97273.41;;;18.26;82.71
73106;BME280;61559;50.476;15.588;2023-07-13T04:34:43;97268.84;;;18.32;82.48
73106;BME280;61559;50.476;15.588;2023-07-13T04:37:14;97268.45;;;18.41;82.43
73106;BME280;61559;50.476;15.588;2023-07-13T04:39:45;97263.08;;;18.50;82.52
73106;BME280;61559;50.476;15.588;2023-07-13T04:42:16;97257.46;;;18.58;82.47
73106;BME280;61559;50.476;15.588;2023-07-13T04:44:50;97255.77;;;18.68;82.42
73106;BME280;61559;50.476;15.588;2023-07-13T04:47:22;97255.59;;;18.78;82.14
73106;BME280;61559;50.476;15.588;2023-07-13T04:49:53;97258.77;;;18.86;82.21
73106;BME280;61559;50.476;15.588;2023-07-13T04:52:25;97259.11;;;18.97;82.34
73106;BME280;61559;50.476;15.588;2023-07-13T04:54:56;97263.75;;;19.07;81.88
73106;BME280;61559;50.476;15.588;2023-07-13T04:57:27;97255.79;;;19.13;81.39
73106;BME280;61559;50.476;15.588;2023-07-13T04:59:58;97258.48;;;19.17;81.17
73106;BME280;61559;50.476;15.588;2023-07-13T05:02:33;97267.53;;;19.21;81.06
73106;BME280;61559;50.476;15.588;2023-07-13T05:05:05;97274.18;;;19.24;81.05
73106;BME280;61559;50.476;15.588;2023-07-13T05:07:37;97289.85;;;19.24;80.91
73106;BME280;61559;50.476;15.588;2023-07-13T05:10:10;97302.52;;;19.22;80.84
73106;BME280;61559;50.476;15.588;2023-07-13T05:12:41;97302.05;;;19.18;81.04
73106;BME280;61559;50.476;15.588;2023-07-13T05:15:12;97304.95;;;19.16;81.72
73106;BME280;61559;50.476;15.588;2023-07-13T05:17:43;97364.13;;;19.04;82.02
73106;BME280;61559;50.476;15.588;2023-07-13T05:20:15;97389.03;;;18.79;81.84
73106;BME280;61559;50.476;15.588;2023-07-13T05:22:47;97381.65;;;18.60;80.50
73106;BME280;61559;50.476;15.588;2023-07-13T05:25:18;97374.67;;;18.49;80.40
73106;BME280;61559;50.476;15.588;2023-07-13T05:27:49;97389.95;;;18.39;80.57
73106;BME280;61559;50.476;15.588;2023-07-13T05:30:21;97388.47;;;18.31;79.92
73106;BME280;61559;50.476;15.588;2023-07-13T05:32:52;97371.43;;;18.26;80.01
73106;BME280;61559;50.476;15.588;2023-07-13T05:35:23;97376.55;;;18.22;79.63
73106;BME280;61559;50.476;15.588;2023-07-13T05:37:54;97378.16;;;18.18;79.46
73106;BME280;61559;50.476;15.588;2023-07-13T05:40:25;97372.95;;;18.16;79.55
73106;BME280;61559;50.476;15.588;2023-07-13T05:42:56;97369.98;;;18.19;79.55
73106;BME280;61559;50.476;15.588;2023-07-13T05:45:27;97372.48;;;18.25;79.90
73106;BME280;61559;50.476;15.588;2023-07-13T05:47:58;97373.14;;;18.34;80.19
73106;BME280;61559;50.476;15.588;2023-07-13T05:50:29;97376.79;;;18.43;80.20
73106;BME280;61559;50.476;15.588;2023-07-13T05:53:01;97370.98;;;18.53;80.60
73106;BME280;61559;50.476;15.588;2023-07-13T05:55:32;97361.23;;;18.68;80.67
73106;BME280;61559;50.476;15.588;2023-07-13T05:58:03;97352.55;;;18.85;80.67
73106;BME280;61559;50.476;15.588;2023-07-13T06:00:34;97345.33;;;19.00;80.23
73106;BME280;61559;50.476;15.588;2023-07-13T06:03:06;97344.23;;;19.11;79.80
73106;BME280;61559;50.476;15.588;2023-07-13T06:05:38;97344.63;;;19.14;78.88
73106;BME280;61559;50.476;15.588;2023-07-13T06:08:10;97337.02;;;19.16;78.40
73106;BME280;61559;50.476;15.588;2023-07-13T06:10:41;97341.60;;;19.19;78.38
73106;BME280;61559;50.476;15.588;2023-07-13T06:13:13;97345.94;;;19.21;78.20
73106;BME280;61559;50.476;15.588;2023-07-13T06:15:44;97346.98;;;19.23;78.33
73106;BME280;61559;50.476;15.588;2023-07-13T06:18:18;97343.95;;;19.27;77.89
73106;BME280;61559;50.476;15.588;2023-07-13T06:20:49;97347.33;;;19.31;77.58
73106;BME280;61559;50.476;15.588;2023-07-13T06:23:20;97351.30;;;19.37;78.09
73106;BME280;61559;50.476;15.588;2023-07-13T06:25:51;97357.39;;;19.46;77.91
73106;BME280;61559;50.476;15.588;2023-07-13T06:28:22;97357.83;;;19.56;77.60
73106;BME280;61559;50.476;15.588;2023-07-13T06:30:53;97359.20;;;19.66;77.58
73106;BME280;61559;50.476;15.588;2023-07-13T06:33:25;97366.94;;;19.78;77.39
73106;BME280;61559;50.476;15.588;2023-07-13T06:35:56;97362.33;;;19.91;77.27
73106;BME280;61559;50.476;15.588;2023-07-13T06:38:27;97356.65;;;20.03;76.53
73106;BME280;61559;50.476;15.588;2023-07-13T06:40:58;97356.60;;;20.15;76.57
73106;BME280;61559;50.476;15.588;2023-07-13T06:43:30;97358.27;;;20.26;77.09
73106;BME280;61559;50.476;15.588;2023-07-13T06:46:01;97360.95;;;20.34;76.25
73106;BME280;61559;50.476;15.588;2023-07-13T06:48:32;97363.08;;;20.41;75.51
73106;BME280;61559;50.476;15.588;2023-07-13T06:51:04;97365.40;;;20.49;75.09
73106;BME280;61559;50.476;15.588;2023-07-13T06:53:35;97370.10;;;20.58;75.12
73106;BME280;61559;50.476;15.588;2023-07-13T06:56:07;97368.68;;;20.67;75.53
73106;BME280;61559;50.476;15.588;2023-07-13T06:58:38;97372.94;;;20.75;74.68
73106;BME280;61559;50.476;15.588;2023-07-13T07:01:09;97373.89;;;20.82;73.95
73106;BME280;61559;50.476;15.588;2023-07-13T07:03:41;97374.84;;;20.90;74.34
73106;BME280;61559;50.476;15.588;2023-07-13T07:06:16;97377.14;;;21.00;74.47
73106;BME280;61559;50.476;15.588;2023-07-13T07:08:47;97382.08;;;21.09;74.70
73106;BME280;61559;50.476;15.588;2023-07-13T07:11:21;97384.44;;;21.17;74.31
73106;BME280;61559;50.476;15.588;2023-07-13T07:13:58;97386.70;;;21.24;74.06
73106;BME280;61559;50.476;15.588;2023-07-13T07:16:30;97388.62;;;21.30;73.04
73106;BME280;61559;50.476;15.588;2023-07-13T07:19:01;97387.19;;;21.37;73.29
73106;BME280;61559;50.476;15.588;2023-07-13T07:21:32;97389.39;;;21.47;73.17
73106;BME280;61559;50.476;15.588;2023-07-13T07:24:04;97390.19;;;21.55;72.04
73106;BME280;61559;50.476;15.588;2023-07-13T07:26:35;97387.63;;;21.60;71.44
73106;BME280;61559;50.476;15.588;2023-07-13T07:29:26;97392.88;;;21.69;72.59
73106;BME280;61559;50.476;15.588;2023-07-13T07:32:01;97392.68;;;21.80;71.32
73106;BME280;61559;50.476;15.588;2023-07-13T07:34:52;97389.23;;;21.93;70.59
73106;BME280;61559;50.476;15.588;2023-07-13T07:37:23;97392.50;;;22.05;69.82
73106;BME280;61559;50.476;15.588;2023-07-13T07:40:15;97387.83;;;22.11;69.15
73106;BME280;61559;50.476;15.588;2023-07-13T07:42:49;97391.73;;;22.20;68.86
73106;BME280;61559;50.476;15.588;2023-07-13T07:45:20;97394.17;;;22.26;67.41
73106;BME280;61559;50.476;15.588;2023-07-13T07:47:51;97390.63;;;22.30;66.38
73106;BME280;61559;50.476;15.588;2023-07-13T07:50:25;97393.92;;;22.39;66.40
73106;BME280;61559;50.476;15.588;2023-07-13T07:52:56;97399.04;;;22.47;66.55
73106;BME280;61559;50.476;15.588;2023-07-13T07:55:27;97399.34;;;22.55;67.01
73106;BME280;61559;50.476;15.588;2023-07-13T07:58:01;97403.92;;;22.63;66.34
73106;BME280;61559;50.476;15.588;2023-07-13T08:00:53;97406.70;;;22.71;66.43
73106;BME280;61559;50.476;15.588;2023-07-13T08:03:26;97408.15;;;22.78;66.72
73106;BME280;61559;50.476;15.588;2023-07-13T08:06:18;97403.48;;;22.82;66.71
73106;BME280;61559;50.476;15.588;2023-07-13T08:08:52;97406.80;;;22.80;64.43
73106;BME280;61559;50.476;15.588;2023-07-13T08:11:24;97410.19;;;22.76;65.48
73106;BME280;61559;50.476;15.588;2023-07-13T08:13:58;97419.48;;;22.78;65.83
73106;BME280;61559;50.476;15.588;2023-07-13T08:16:30;97422.39;;;22.84;66.56
73106;BME280;61559;50.476;15.588;2023-07-13T08:19:02;97424.73;;;22.92;65.65
73106;BME280;61559;50.476;15.588;2023-07-13T08:21:34;97433.92;;;22.96;64.89
73106;BME280;61559;50.476;15.588;2023-07-13T08:24:05;97434.59;;;22.96;64.39
73106;BME280;61559;50.476;15.588;2023-07-13T08:26:36;97443.17;;;23.00;65.13
73106;BME280;61559;50.476;15.588;2023-07-13T08:29:07;97445.50;;;23.10;64.75
73106;BME280;61559;50.476;15.588;2023-07-13T08:31:38;97447.25;;;23.22;64.95
73106;BME280;61559;50.476;15.588;2023-07-13T08:34:09;97448.79;;;23.34;63.36
73106;BME280;61559;50.476;15.588;2023-07-13T08:36:42;97457.05;;;23.33;62.42
73106;BME280;61559;50.476;15.588;2023-07-13T08:39:14;97457.39;;;23.31;62.77
73106;BME280;61559;50.476;15.588;2023-07-13T08:41:45;97455.91;;;23.40;62.75
73106;BME280;61559;50.476;15.588;2023-07-13T08:44:24;97452.04;;;23.53;63.66
73106;BME280;61559;50.476;15.588;2023-07-13T08:46:58;97444.23;;;23.73;63.48
73106;BME280;61559;50.476;15.588;2023-07-13T08:49:29;97441.16;;;23.91;62.90
73106;BME280;61559;50.476;15.588;2023-07-13T08:52:04;97439.84;;;24.06;62.71
73106;BME280;61559;50.476;15.588;2023-07-13T08:54:41;97440.77;;;24.15;60.95
73106;BME280;61559;50.476;15.588;2023-07-13T08:57:15;97441.95;;;24.22;60.73
73106;BME280;61559;50.476;15.588;2023-07-13T08:59:47;97445.77;;;24.30;60.32
73106;BME280;61559;50.476;15.588;2023-07-13T09:02:23;97438.94;;;24.40;60.48
73106;BME280;61559;50.476;15.588;2023-07-13T09:04:58;97438.03;;;24.44;59.55
73106;BME280;61559;50.476;15.588;2023-07-13T09:07:45;97432.39;;;24.44;59.28
73106;BME280;61559;50.476;15.588;2023-07-13T09:10:23;97438.84;;;24.45;59.26
73106;BME280;61559;50.476;15.588;2023-07-13T09:13:07;97442.52;;;24.50;58.98
73106;BME280;61559;50.476;15.588;2023-07-13T09:15:46;97444.84;;;24.47;58.75
73106;BME280;61559;50.476;15.588;2023-07-13T09:18:22;97444.57;;;24.39;58.90
73106;BME280;61559;50.476;15.588;2023-07-13T09:20:58;97450.20;;;24.35;59.61
73106;BME280;61559;50.476;15.588;2023-07-13T09:23:31;97453.80;;;24.26;58.38
73106;BME280;61559;50.476;15.588;2023-07-13T09:26:05;97453.65;;;24.14;57.48
73106;BME280;61559;50.476;15.588;2023-07-13T09:28:41;97453.52;;;24.01;57.79
73106;BME280;61559;50.476;15.588;2023-07-13T09:31:15;97448.86;;;23.95;58.44
73106;BME280;61559;50.476;15.588;2023-07-13T09:33:48;97448.35;;;23.99;59.43
73106;BME280;61559;50.476;15.588;2023-07-13T09:36:22;97452.60;;;24.08;59.26
73106;BME280;61559;50.476;15.588;2023-07-13T09:39:02;97454.76;;;24.15;58.59
73106;BME280;61559;50.476;15.588;2023-07-13T09:41:41;97457.14;;;24.24;59.18
73106;BME280;61559;50.476;15.588;2023-07-13T09:44:26;97458.13;;;24.38;58.95
73106;BME280;61559;50.476;15.588;2023-07-13T09:47:01;97455.73;;;24.53;57.24
73106;BME280;61559;50.476;15.588;2023-07-13T09:49:35;97458.33;;;24.56;56.88
73106;BME280;61559;50.476;15.588;2023-07-13T09:52:12;97460.63;;;24.58;57.73
73106;BME280;61559;50.476;15.588;2023-07-13T09:54:51;97460.52;;;24.61;57.35
73106;BME280;61559;50.476;15.588;2023-07-13T09:57:27;97469.55;;;24.50;57.04
73106;BME280;61559;50.476;15.588;2023-07-13T10:00:24;97470.36;;;24.40;57.66
73106;BME280;61559;50.476;15.588;2023-07-13T10:05:44;97472.23;;;24.20;58.20
73106;BME280;61559;50.476;15.588;2023-07-13T10:08:28;97479.09;;;24.12;57.40
73106;BME280;61559;50.476;15.588;2023-07-13T10:11:02;97482.62;;;24.00;57.37
73106;BME280;61559;50.476;15.588;2023-07-13T10:13:44;97481.15;;;23.91;58.59
73106;BME280;61559;50.476;15.588;2023-07-13T10:16:16;97477.39;;;23.85;57.65
73106;BME280;61559;50.476;15.588;2023-07-13T10:18:50;97477.50;;;23.61;58.27
73106;BME280;61559;50.476;15.588;2023-07-13T10:21:26;97485.91;;;23.39;58.93
73106;BME280;61559;50.476;15.588;2023-07-13T10:24:10;97494.34;;;23.21;58.64
73106;BME280;61559;50.476;15.588;2023-07-13T10:26:49;97498.12;;;23.00;58.81
73106;BME280;61559;50.476;15.588;2023-07-13T10:29:25;97505.07;;;22.82;58.76
73106;BME280;61559;50.476;15.588;2023-07-13T10:31:57;97509.64;;;22.68;58.63
73106;BME280;61559;50.476;15.588;2023-07-13T10:34:29;97515.09;;;22.61;59.38
73106;BME280;61559;50.476;15.588;2023-07-13T10:37:01;97518.30;;;22.63;58.96
73106;BME280;61559;50.476;15.588;2023-07-13T10:39:34;97517.99;;;22.65;58.89
73106;BME280;61559;50.476;15.588;2023-07-13T10:42:11;97511.52;;;22.69;58.48
73106;BME280;61559;50.476;15.588;2023-07-13T10:44:45;97512.60;;;22.75;59.24
73106;BME280;61559;50.476;15.588;2023-07-13T10:47:17;97509.36;;;22.77;58.63
73106;BME280;61559;50.476;15.588;2023-07-13T10:49:50;97510.58;;;22.77;58.87
73106;BME280;61559;50.476;15.588;2023-07-13T10:52:45;97507.19;;;22.76;58.12
73106;BME280;61559;50.476;15.588;2023-07-13T10:55:34;97510.34;;;22.80;58.27
73106;BME280;61559;50.476;15.588;2023-07-13T10:58:20;97512.81;;;22.92;59.09
73106;BME280;61559;50.476;15.588;2023-07-13T11:00:56;97516.02;;;23.04;58.52
73106;BME280;61559;50.476;15.588;2023-07-13T11:03:29;97517.78;;;23.20;58.89
73106;BME280;61559;50.476;15.588;2023-07-13T11:06:15;97518.60;;;23.36;57.76
73106;BME280;61559;50.476;15.588;2023-07-13T11:08:57;97513.95;;;23.48;58.23
73106;BME280;61559;50.476;15.588;2023-07-13T11:11:37;97517.92;;;23.60;57.90
73106;BME280;61559;50.476;15.588;2023-07-13T11:14:29;97520.17;;;23.68;55.97
73106;BME280;61559;50.476;15.588;2023-07-13T11:20:34;97517.51;;;23.72;55.45
73106;BME280;61559;50.476;15.588;2023-07-13T11:23:26;97523.70;;;23.69;54.32
73106;BME280;61559;50.476;15.588;2023-07-13T11:25:58;97522.86;;;23.63;54.71
73106;BME280;61559;50.476;15.588;2023-07-13T11:28:33;97525.98;;;23.59;54.07
73106;BME280;61559;50.476;15.588;2023-07-13T11:31:15;97526.89;;;23.66;55.64
73106;BME280;61559;50.476;15.588;2023-07-13T11:33:57;97528.55;;;23.80;55.22
73106;BME280;61559;50.476;15.588;2023-07-13T11:36:38;97525.00;;;23.89;54.76
73106;BME280;61559;50.476;15.588;2023-07-13T11:39:18;97528.35;;;23.98;54.07
73106;BME280;61559;50.476;15.588;2023-07-13T11:41:55;97521.57;;;23.99;53.36
73106;BME280;61559;50.476;15.588;2023-07-13T11:44:28;97520.05;;;24.01;53.66
73106;BME280;61559;50.476;15.588;2023-07-13T11:47:01;97517.15;;;24.10;53.86
73106;BME280;61559;50.476;15.588;2023-07-13T11:49:43;97513.16;;;24.22;52.87
73106;BME280;61559;50.476;15.588;2023-07-13T11:52:18;97517.69;;;24.33;51.87
73106;BME280;61559;50.476;15.588;2023-07-13T11:54:53;97518.64;;;24.35;51.32
73106;BME280;61559;50.476;15.588;2023-07-13T11:57:29;97517.23;;;24.39;50.43
73106;BME280;61559;50.476;15.588;2023-07-13T12:00:11;97514.54;;;24.44;50.00
73106;BME280;61559;50.476;15.588;2023-07-13T12:02:47;97517.45;;;24.57;50.53
73106;BME280;61559;50.476;15.588;2023-07-13T12:05:20;97512.20;;;24.66;49.49
73106;BME280;61559;50.476;15.588;2023-07-13T12:07:52;97511.14;;;24.66;49.73
73106;BME280;61559;50.476;15.588;2023-07-13T12:10:26;97508.33;;;24.68;49.91
73106;BME280;61559;50.476;15.588;2023-07-13T12:13:01;97503.94;;;24.75;50.73
73106;BME280;61559;50.476;15.588;2023-07-13T12:15:38;97500.13;;;24.79;49.78
73106;BME280;61559;50.476;15.588;2023-07-13T12:18:15;97502.27;;;24.86;50.69
73106;BME280;61559;50.476;15.588;2023-07-13T12:20:48;97501.61;;;24.95;50.33
73106;BME280;61559;50.476;15.588;2023-07-13T12:23:25;97509.95;;;25.02;49.46
73106;BME280;61559;50.476;15.588;2023-07-13T12:25:58;97505.68;;;25.05;49.46
73106;BME280;61559;50.476;15.588;2023-07-13T12:28:35;97499.04;;;25.06;48.83
73106;BME280;61559;50.476;15.588;2023-07-13T12:31:22;97502.23;;;25.10;48.74
73106;BME280;61559;50.476;15.588;2023-07-13T12:34:06;97512.33;;;25.09;48.27
73106;BME280;61559;50.476;15.588;2023-07-13T12:36:45;97508.11;;;25.04;48.49
73106;BME280;61559;50.476;15.588;2023-07-13T12:39:20;97506.96;;;25.00;47.54
73106;BME280;61559;50.476;15.588;2023-07-13T12:41:54;97506.23;;;24.93;48.23
73106;BME280;61559;50.476;15.588;2023-07-13T12:44:43;97506.04;;;24.97;48.62
73106;BME280;61559;50.476;15.588;2023-07-13T12:47:15;97508.67;;;25.02;48.33
73106;BME280;61559;50.476;15.588;2023-07-13T12:49:49;97506.48;;;25.07;48.19
73106;BME280;61559;50.476;15.588;2023-07-13T12:52:27;97511.48;;;25.11;47.37
73106;BME280;61559;50.476;15.588;2023-07-13T12:55:05;97509.11;;;25.12;46.82
73106;BME280;61559;50.476;15.588;2023-07-13T12:57:44;97507.76;;;25.19;47.26
73106;BME280;61559;50.476;15.588;2023-07-13T13:00:26;97504.73;;;25.25;47.03
73106;BME280;61559;50.476;15.588;2023-07-13T13:03:02;97502.38;;;25.35;46.89
73106;BME280;61559;50.476;15.588;2023-07-13T13:06:00;97502.97;;;25.48;46.31
73106;BME280;61559;50.476;15.588;2023-07-13T13:08:34;97505.84;;;25.44;45.19
73106;BME280;61559;50.476;15.588;2023-07-13T13:11:06;97503.88;;;25.35;45.29
73106;BME280;61559;50.476;15.588;2023-07-13T13:13:37;97502.77;;;25.30;44.86
73106;BME280;61559;50.476;15.588;2023-07-13T13:16:12;97498.30;;;25.26;45.78
73106;BME280;61559;50.476;15.588;2023-07-13T13:18:44;97496.13;;;25.17;45.50
73106;BME280;61559;50.476;15.588;2023-07-13T13:21:16;97495.85;;;25.08;45.41
73106;BME280;61559;50.476;15.588;2023-07-13T13:23:47;97497.56;;;25.05;45.70
73106;BME280;61559;50.476;15.588;2023-07-13T13:26:21;97494.20;;;25.03;45.61
73106;BME280;61559;50.476;15.588;2023-07-13T13:28:53;97497.06;;;24.99;46.04
73106;BME280;61559;50.476;15.588;2023-07-13T13:31:24;97490.23;;;24.96;45.03